sensor_id;sensor_type;location;lat;lon;timestamp;P1;durP1;ratioP1;P2;durP2;ratioP2
56537;SDS011;42435;53.292;6.000;2024-01-25T00:02:22;31.63;;;8.05;;
56537;SDS011;42435;53.292;6.000;2024-01-25T00:04:48;38.42;;;7.30;;
56537;SDS011;42435;53.292;6.000;2024-01-25T00:07:13;42.83;;;7.47;;
56537;SDS011;42435;53.292;6.000;2024-01-25T00:09:39;35.03;;;6.85;;
56537;SDS011;42435;53.292;6.000;2024-01-25T00:12:04;41.03;;;7.38;;
56537;SDS011;42435;53.292;6.000;2024-01-25T00:14:31;34.10;;;6.63;;
56537;SDS011;42435;53.292;6.000;2024-01-25T00:16:56;35.60;;;6.50;;
56537;SDS011;42435;53.292;6.000;2024-01-25T00:19:22;34.70;;;7.63;;
56537;SDS011;42435;53.292;6.000;2024-01-25T00:21:47;34.97;;;6.63;;
56537;SDS011;42435;53.292;6.000;2024-01-25T00:24:13;32.08;;;6.93;;
56537;SDS011;42435;53.292;6.000;2024-01-25T00:26:39;29.08;;;6.47;;
56537;SDS011;42435;53.292;6.000;2024-01-25T00:29:05;31.15;;;6.63;;
56537;SDS011;42435;53.292;6.000;2024-01-25T00:31:33;32.22;;;6.70;;
56537;SDS011;42435;53.292;6.000;2024-01-25T00:33:59;32.28;;;5.97;;
56537;SDS011;42435;53.292;6.000;2024-01-25T00:36:25;31.63;;;6.35;;
56537;SDS011;42435;53.292;6.000;2024-01-25T00:38:51;33.28;;;6.88;;
56537;SDS011;42435;53.292;6.000;2024-01-25T00:41:17;27.65;;;6.57;;
56537;SDS011;42435;53.292;6.000;2024-01-25T00:43:46;32.60;;;6.97;;
56537;SDS011;42435;53.292;6.000;2024-01-25T00:46:15;31.15;;;7.25;;
56537;SDS011;42435;53.292;6.000;2024-01-25T00:48:43;37.88;;;6.13;;
56537;SDS011;42435;53.292;6.000;2024-01-25T00:51:08;34.97;;;7.03;;
56537;SDS011;42435;53.292;6.000;2024-01-25T00:53:41;33.47;;;8.00;;
56537;SDS011;42435;53.292;6.000;2024-01-25T00:56:07;37.15;;;6.13;;
56537;SDS011;42435;53.292;6.000;2024-01-25T00:58:33;28.95;;;6.30;;
56537;SDS011;42435;53.292;6.000;2024-01-25T01:00:59;38.83;;;7.85;;
56537;SDS011;42435;53.292;6.000;2024-01-25T01:03:25;30.48;;;5.95;;
56537;SDS011;42435;53.292;6.000;2024-01-25T01:05:51;39.53;;;7.03;;
56537;SDS011;42435;53.292;6.000;2024-01-25T01:08:16;25.70;;;5.70;;
56537;SDS011;42435;53.292;6.000;2024-01-25T01:10:42;34.65;;;6.38;;
56537;SDS011;42435;53.292;6.000;2024-01-25T01:13:08;25.55;;;6.32;;
56537;SDS011;42435;53.292;6.000;2024-01-25T01:15:35;29.15;;;6.65;;
56537;SDS011;42435;53.292;6.000;2024-01-25T01:18:00;28.52;;;5.97;;
56537;SDS011;42435;53.292;6.000;2024-01-25T01:20:26;28.40;;;5.10;;
56537;SDS011;42435;53.292;6.000;2024-01-25T01:22:52;28.10;;;5.45;;
56537;SDS011;42435;53.292;6.000;2024-01-25T01:25:18;31.08;;;5.95;;
56537;SDS011;42435;53.292;6.000;2024-01-25T01:27:44;27.15;;;6.22;;
56537;SDS011;42435;53.292;6.000;2024-01-25T01:30:09;31.75;;;5.60;;
56537;SDS011;42435;53.292;6.000;2024-01-25T01:32:36;27.58;;;7.05;;
56537;SDS011;42435;53.292;6.000;2024-01-25T01:35:01;30.38;;;7.15;;
56537;SDS011;42435;53.292;6.000;2024-01-25T01:37:27;35.40;;;6.50;;
56537;SDS011;42435;53.292;6.000;2024-01-25T01:39:53;33.38;;;5.63;;
56537;SDS011;42435;53.292;6.000;2024-01-25T01:42:20;38.55;;;6.90;;
56537;SDS011;42435;53.292;6.000;2024-01-25T01:44:46;27.67;;;7.30;;
56537;SDS011;42435;53.292;6.000;2024-01-25T01:47:15;32.42;;;6.05;;
56537;SDS011;42435;53.292;6.000;2024-01-25T01:49:41;39.63;;;8.55;;
56537;SDS011;42435;53.292;6.000;2024-01-25T01:52:07;32.78;;;7.65;;
56537;SDS011;42435;53.292;6.000;2024-01-25T01:54:33;37.05;;;6.60;;
56537;SDS011;42435;53.292;6.000;2024-01-25T01:56:59;29.60;;;6.07;;
56537;SDS011;42435;53.292;6.000;2024-01-25T01:59:25;35.40;;;7.30;;
56537;SDS011;42435;53.292;6.000;2024-01-25T02:01:51;32.83;;;8.05;;
56537;SDS011;42435;53.292;6.000;2024-01-25T02:04:17;36.78;;;7.15;;
56537;SDS011;42435;53.292;6.000;2024-01-25T02:06:43;37.85;;;7.10;;
56537;SDS011;42435;53.292;6.000;2024-01-25T02:09:11;34.70;;;8.20;;
56537;SDS011;42435;53.292;6.000;2024-01-25T02:11:37;34.70;;;7.18;;
56537;SDS011;42435;53.292;6.000;2024-01-25T02:14:03;32.05;;;8.18;;
56537;SDS011;42435;53.292;6.000;2024-01-25T02:16:28;35.08;;;7.30;;
56537;SDS011;42435;53.292;6.000;2024-01-25T02:18:54;41.15;;;7.60;;
56537;SDS011;42435;53.292;6.000;2024-01-25T02:21:22;37.47;;;8.95;;
56537;SDS011;42435;53.292;6.000;2024-01-25T02:23:47;40.28;;;8.30;;
56537;SDS011;42435;53.292;6.000;2024-01-25T02:26:13;36.33;;;8.07;;
56537;SDS011;42435;53.292;6.000;2024-01-25T02:28:42;41.75;;;7.97;;
56537;SDS011;42435;53.292;6.000;2024-01-25T02:31:07;37.80;;;8.98;;
56537;SDS011;42435;53.292;6.000;2024-01-25T02:33:33;54.97;;;9.15;;
56537;SDS011;42435;53.292;6.000;2024-01-25T02:35:58;34.58;;;6.85;;
56537;SDS011;42435;53.292;6.000;2024-01-25T02:38:25;37.17;;;7.95;;
56537;SDS011;42435;53.292;6.000;2024-01-25T02:40:51;47.67;;;9.43;;
56537;SDS011;42435;53.292;6.000;2024-01-25T02:43:19;42.28;;;7.10;;
56537;SDS011;42435;53.292;6.000;2024-01-25T02:45:45;38.72;;;8.07;;
56537;SDS011;42435;53.292;6.000;2024-01-25T02:48:10;32.92;;;7.45;;
56537;SDS011;42435;53.292;6.000;2024-01-25T02:50:36;39.58;;;7.72;;
56537;SDS011;42435;53.292;6.000;2024-01-25T02:53:01;45.92;;;8.52;;
56537;SDS011;42435;53.292;6.000;2024-01-25T02:55:27;42.63;;;8.48;;
56537;SDS011;42435;53.292;6.000;2024-01-25T02:57:54;46.22;;;8.60;;
56537;SDS011;42435;53.292;6.000;2024-01-25T03:00:20;44.38;;;7.50;;
56537;SDS011;42435;53.292;6.000;2024-01-25T03:02:48;38.90;;;7.97;;
56537;SDS011;42435;53.292;6.000;2024-01-25T03:05:14;46.72;;;9.07;;
56537;SDS011;42435;53.292;6.000;2024-01-25T03:07:40;34.47;;;7.28;;
56537;SDS011;42435;53.292;6.000;2024-01-25T03:10:06;44.28;;;8.30;;
56537;SDS011;42435;53.292;6.000;2024-01-25T03:12:32;36.33;;;7.18;;
56537;SDS011;42435;53.292;6.000;2024-01-25T03:14:57;44.05;;;7.38;;
56537;SDS011;42435;53.292;6.000;2024-01-25T03:17:23;45.83;;;8.80;;
56537;SDS011;42435;53.292;6.000;2024-01-25T03:19:48;44.88;;;8.20;;
56537;SDS011;42435;53.292;6.000;2024-01-25T03:22:14;35.20;;;7.90;;
56537;SDS011;42435;53.292;6.000;2024-01-25T03:24:40;43.72;;;7.75;;
56537;SDS011;42435;53.292;6.000;2024-01-25T03:27:05;31.58;;;6.90;;
56537;SDS011;42435;53.292;6.000;2024-01-25T03:29:38;34.50;;;6.20;;
56537;SDS011;42435;53.292;6.000;2024-01-25T03:32:07;35.30;;;6.68;;
56537;SDS011;42435;53.292;6.000;2024-01-25T03:34:33;27.27;;;7.90;;
56537;SDS011;42435;53.292;6.000;2024-01-25T03:36:59;39.20;;;7.13;;
56537;SDS011;42435;53.292;6.000;2024-01-25T03:39:24;41.80;;;7.88;;
56537;SDS011;42435;53.292;6.000;2024-01-25T03:41:50;40.50;;;8.32;;
56537;SDS011;42435;53.292;6.000;2024-01-25T03:44:19;35.22;;;8.10;;
56537;SDS011;42435;53.292;6.000;2024-01-25T03:46:44;39.30;;;7.53;;
56537;SDS011;42435;53.292;6.000;2024-01-25T03:49:10;44.83;;;8.13;;
56537;SDS011;42435;53.292;6.000;2024-01-25T03:51:35;41.08;;;6.85;;
56537;SDS011;42435;53.292;6.000;2024-01-25T03:54:02;46.55;;;7.97;;
56537;SDS011;42435;53.292;6.000;2024-01-25T03:56:27;34.50;;;7.15;;
56537;SDS011;42435;53.292;6.000;2024-01-25T03:58:53;40.95;;;7.93;;
56537;SDS011;42435;53.292;6.000;2024-01-25T04:01:19;30.45;;;6.22;;
56537;SDS011;42435;53.292;6.000;2024-01-25T04:03:44;43.78;;;7.38;;
56537;SDS011;42435;53.292;6.000;2024-01-25T04:06:10;44.30;;;7.82;;
56537;SDS011;42435;53.292;6.000;2024-01-25T04:08:36;39.15;;;7.55;;
56537;SDS011;42435;53.292;6.000;2024-01-25T04:11:01;35.22;;;7.10;;
56537;SDS011;42435;53.292;6.000;2024-01-25T04:13:30;46.53;;;8.50;;
56537;SDS011;42435;53.292;6.000;2024-01-25T04:15:55;38.00;;;6.93;;
56537;SDS011;42435;53.292;6.000;2024-01-25T04:18:21;38.75;;;6.70;;
56537;SDS011;42435;53.292;6.000;2024-01-25T04:20:48;35.17;;;7.15;;
56537;SDS011;42435;53.292;6.000;2024-01-25T04:23:15;35.05;;;6.45;;
56537;SDS011;42435;53.292;6.000;2024-01-25T04:25:44;39.72;;;7.68;;
56537;SDS011;42435;53.292;6.000;2024-01-25T04:28:10;36.13;;;6.68;;
56537;SDS011;42435;53.292;6.000;2024-01-25T04:30:35;38.58;;;7.07;;
56537;SDS011;42435;53.292;6.000;2024-01-25T04:33:01;40.03;;;7.05;;
56537;SDS011;42435;53.292;6.000;2024-01-25T04:35:28;39.35;;;8.15;;
56537;SDS011;42435;53.292;6.000;2024-01-25T04:37:53;43.10;;;6.93;;
56537;SDS011;42435;53.292;6.000;2024-01-25T04:40:19;39.78;;;7.25;;
56537;SDS011;42435;53.292;6.000;2024-01-25T04:42:45;34.33;;;7.32;;
56537;SDS011;42435;53.292;6.000;2024-01-25T04:45:10;38.75;;;6.38;;
56537;SDS011;42435;53.292;6.000;2024-01-25T04:47:37;45.13;;;7.97;;
56537;SDS011;42435;53.292;6.000;2024-01-25T04:50:04;41.17;;;7.00;;
56537;SDS011;42435;53.292;6.000;2024-01-25T04:52:30;39.75;;;8.57;;
56537;SDS011;42435;53.292;6.000;2024-01-25T04:54:55;35.45;;;6.75;;
56537;SDS011;42435;53.292;6.000;2024-01-25T04:57:21;40.50;;;7.95;;
56537;SDS011;42435;53.292;6.000;2024-01-25T04:59:46;45.50;;;7.15;;
56537;SDS011;42435;53.292;6.000;2024-01-25T05:02:12;37.47;;;6.82;;
56537;SDS011;42435;53.292;6.000;2024-01-25T05:04:40;39.33;;;7.53;;
56537;SDS011;42435;53.292;6.000;2024-01-25T05:07:05;38.65;;;7.50;;
56537;SDS011;42435;53.292;6.000;2024-01-25T05:09:34;36.63;;;7.38;;
56537;SDS011;42435;53.292;6.000;2024-01-25T05:11:59;39.47;;;8.77;;
56537;SDS011;42435;53.292;6.000;2024-01-25T05:14:30;41.85;;;8.27;;
56537;SDS011;42435;53.292;6.000;2024-01-25T05:16:57;41.78;;;7.38;;
56537;SDS011;42435;53.292;6.000;2024-01-25T05:19:22;45.28;;;8.02;;
56537;SDS011;42435;53.292;6.000;2024-01-25T05:21:49;40.63;;;6.90;;
56537;SDS011;42435;53.292;6.000;2024-01-25T05:24:14;47.30;;;8.82;;
56537;SDS011;42435;53.292;6.000;2024-01-25T05:26:44;42.00;;;9.52;;
56537;SDS011;42435;53.292;6.000;2024-01-25T05:29:10;43.33;;;8.07;;
56537;SDS011;42435;53.292;6.000;2024-01-25T05:31:35;35.83;;;7.35;;
56537;SDS011;42435;53.292;6.000;2024-01-25T05:34:01;44.60;;;6.85;;
56537;SDS011;42435;53.292;6.000;2024-01-25T05:36:30;42.00;;;8.05;;
56537;SDS011;42435;53.292;6.000;2024-01-25T05:38:56;42.90;;;9.15;;
56537;SDS011;42435;53.292;6.000;2024-01-25T05:41:21;32.30;;;6.35;;
56537;SDS011;42435;53.292;6.000;2024-01-25T05:43:47;37.38;;;7.75;;
56537;SDS011;42435;53.292;6.000;2024-01-25T05:46:13;36.78;;;7.05;;
56537;SDS011;42435;53.292;6.000;2024-01-25T05:48:38;38.47;;;7.95;;
56537;SDS011;42435;53.292;6.000;2024-01-25T05:51:04;36.67;;;7.45;;
56537;SDS011;42435;53.292;6.000;2024-01-25T05:53:30;34.65;;;7.10;;
56537;SDS011;42435;53.292;6.000;2024-01-25T05:55:55;40.55;;;9.35;;
56537;SDS011;42435;53.292;6.000;2024-01-25T05:58:21;54.50;;;9.00;;
56537;SDS011;42435;53.292;6.000;2024-01-25T06:00:47;45.75;;;9.95;;
56537;SDS011;42435;53.292;6.000;2024-01-25T06:03:13;50.50;;;9.30;;
56537;SDS011;42435;53.292;6.000;2024-01-25T06:05:38;46.47;;;8.48;;
56537;SDS011;42435;53.292;6.000;2024-01-25T06:08:04;37.03;;;8.20;;
56537;SDS011;42435;53.292;6.000;2024-01-25T06:10:30;42.33;;;8.63;;
56537;SDS011;42435;53.292;6.000;2024-01-25T06:12:55;36.28;;;9.48;;
56537;SDS011;42435;53.292;6.000;2024-01-25T06:15:21;46.05;;;9.13;;
56537;SDS011;42435;53.292;6.000;2024-01-25T06:17:46;38.78;;;10.15;;
56537;SDS011;42435;53.292;6.000;2024-01-25T06:20:12;50.40;;;9.30;;
56537;SDS011;42435;53.292;6.000;2024-01-25T06:22:38;39.28;;;7.60;;
56537;SDS011;42435;53.292;6.000;2024-01-25T06:25:03;42.28;;;8.57;;
56537;SDS011;42435;53.292;6.000;2024-01-25T06:27:29;50.50;;;9.63;;
56537;SDS011;42435;53.292;6.000;2024-01-25T06:29:55;42.10;;;7.97;;
56537;SDS011;42435;53.292;6.000;2024-01-25T06:32:21;42.88;;;8.10;;
56537;SDS011;42435;53.292;6.000;2024-01-25T06:34:47;48.03;;;9.00;;
56537;SDS011;42435;53.292;6.000;2024-01-25T06:37:12;42.97;;;7.90;;
56537;SDS011;42435;53.292;6.000;2024-01-25T06:39:40;50.13;;;9.60;;
56537;SDS011;42435;53.292;6.000;2024-01-25T06:42:07;48.40;;;9.07;;
56537;SDS011;42435;53.292;6.000;2024-01-25T06:44:33;44.67;;;10.05;;
56537;SDS011;42435;53.292;6.000;2024-01-25T06:46:58;51.08;;;9.48;;
56537;SDS011;42435;53.292;6.000;2024-01-25T06:49:24;47.53;;;9.95;;
56537;SDS011;42435;53.292;6.000;2024-01-25T06:51:49;51.70;;;9.25;;
56537;SDS011;42435;53.292;6.000;2024-01-25T06:54:15;51.50;;;9.05;;
56537;SDS011;42435;53.292;6.000;2024-01-25T06:56:41;46.10;;;10.52;;
56537;SDS011;42435;53.292;6.000;2024-01-25T06:59:07;50.42;;;9.88;;
56537;SDS011;42435;53.292;6.000;2024-01-25T07:01:32;42.40;;;9.40;;
56537;SDS011;42435;53.292;6.000;2024-01-25T07:03:58;45.13;;;11.82;;
56537;SDS011;42435;53.292;6.000;2024-01-25T07:06:24;52.13;;;10.55;;
56537;SDS011;42435;53.292;6.000;2024-01-25T07:08:51;51.70;;;9.98;;
56537;SDS011;42435;53.292;6.000;2024-01-25T07:11:18;49.92;;;8.52;;
56537;SDS011;42435;53.292;6.000;2024-01-25T07:13:43;49.80;;;9.43;;
56537;SDS011;42435;53.292;6.000;2024-01-25T07:16:10;49.47;;;9.55;;
56537;SDS011;42435;53.292;6.000;2024-01-25T07:18:35;50.45;;;9.35;;
56537;SDS011;42435;53.292;6.000;2024-01-25T07:21:01;46.30;;;9.35;;
56537;SDS011;42435;53.292;6.000;2024-01-25T07:23:29;44.50;;;8.32;;
56537;SDS011;42435;53.292;6.000;2024-01-25T07:25:55;48.33;;;10.30;;
56537;SDS011;42435;53.292;6.000;2024-01-25T07:28:23;48.42;;;9.82;;
56537;SDS011;42435;53.292;6.000;2024-01-25T07:30:53;42.38;;;9.10;;
56537;SDS011;42435;53.292;6.000;2024-01-25T07:33:18;51.65;;;12.13;;
56537;SDS011;42435;53.292;6.000;2024-01-25T07:35:44;57.40;;;12.00;;
56537;SDS011;42435;53.292;6.000;2024-01-25T07:38:13;61.28;;;13.07;;
56537;SDS011;42435;53.292;6.000;2024-01-25T07:40:40;48.83;;;9.43;;
56537;SDS011;42435;53.292;6.000;2024-01-25T07:43:06;41.70;;;10.05;;
56537;SDS011;42435;53.292;6.000;2024-01-25T07:45:32;44.95;;;9.27;;
56537;SDS011;42435;53.292;6.000;2024-01-25T07:47:57;41.20;;;10.02;;
56537;SDS011;42435;53.292;6.000;2024-01-25T07:50:23;47.90;;;9.73;;
56537;SDS011;42435;53.292;6.000;2024-01-25T07:52:49;55.65;;;10.50;;
56537;SDS011;42435;53.292;6.000;2024-01-25T07:55:18;60.08;;;10.90;;
56537;SDS011;42435;53.292;6.000;2024-01-25T07:57:43;46.22;;;10.63;;
56537;SDS011;42435;53.292;6.000;2024-01-25T08:00:09;41.17;;;8.25;;
56537;SDS011;42435;53.292;6.000;2024-01-25T08:02:35;43.53;;;9.52;;
56537;SDS011;42435;53.292;6.000;2024-01-25T08:05:01;45.35;;;8.50;;
56537;SDS011;42435;53.292;6.000;2024-01-25T08:07:28;49.70;;;10.98;;
56537;SDS011;42435;53.292;6.000;2024-01-25T08:09:53;43.00;;;9.15;;
56537;SDS011;42435;53.292;6.000;2024-01-25T08:12:23;47.00;;;8.85;;
56537;SDS011;42435;53.292;6.000;2024-01-25T08:14:52;40.47;;;8.75;;
56537;SDS011;42435;53.292;6.000;2024-01-25T08:17:18;43.17;;;7.75;;
56537;SDS011;42435;53.292;6.000;2024-01-25T08:19:44;39.08;;;8.93;;
56537;SDS011;42435;53.292;6.000;2024-01-25T08:22:11;45.85;;;7.88;;
56537;SDS011;42435;53.292;6.000;2024-01-25T08:24:38;44.28;;;9.02;;
56537;SDS011;42435;53.292;6.000;2024-01-25T08:27:05;52.92;;;10.80;;
56537;SDS011;42435;53.292;6.000;2024-01-25T08:29:32;40.67;;;9.95;;
56537;SDS011;42435;53.292;6.000;2024-01-25T08:31:58;52.90;;;9.60;;
56537;SDS011;42435;53.292;6.000;2024-01-25T08:34:26;54.30;;;11.05;;
56537;SDS011;42435;53.292;6.000;2024-01-25T08:36:52;54.85;;;11.05;;
56537;SDS011;42435;53.292;6.000;2024-01-25T08:39:18;51.50;;;10.20;;
56537;SDS011;42435;53.292;6.000;2024-01-25T08:41:43;41.55;;;8.35;;
56537;SDS011;42435;53.292;6.000;2024-01-25T08:44:10;54.75;;;10.40;;
56537;SDS011;42435;53.292;6.000;2024-01-25T08:46:36;52.63;;;8.45;;
56537;SDS011;42435;53.292;6.000;2024-01-25T08:49:02;46.63;;;9.27;;
56537;SDS011;42435;53.292;6.000;2024-01-25T08:51:33;51.53;;;8.73;;
56537;SDS011;42435;53.292;6.000;2024-01-25T08:53:59;42.47;;;8.68;;
56537;SDS011;42435;53.292;6.000;2024-01-25T08:56:24;52.00;;;10.30;;
56537;SDS011;42435;53.292;6.000;2024-01-25T08:58:50;52.97;;;10.68;;
56537;SDS011;42435;53.292;6.000;2024-01-25T09:01:17;46.30;;;9.48;;
56537;SDS011;42435;53.292;6.000;2024-01-25T09:03:46;55.40;;;10.70;;
56537;SDS011;42435;53.292;6.000;2024-01-25T09:06:12;50.75;;;9.32;;
56537;SDS011;42435;53.292;6.000;2024-01-25T09:08:37;49.65;;;9.68;;
56537;SDS011;42435;53.292;6.000;2024-01-25T09:11:03;39.35;;;9.55;;
56537;SDS011;42435;53.292;6.000;2024-01-25T09:13:30;50.83;;;9.85;;
56537;SDS011;42435;53.292;6.000;2024-01-25T09:15:57;58.00;;;11.70;;
56537;SDS011;42435;53.292;6.000;2024-01-25T09:18:23;49.45;;;9.55;;
56537;SDS011;42435;53.292;6.000;2024-01-25T09:20:49;48.92;;;10.82;;
56537;SDS011;42435;53.292;6.000;2024-01-25T09:23:15;42.95;;;9.20;;
56537;SDS011;42435;53.292;6.000;2024-01-25T09:25:47;50.28;;;9.45;;
56537;SDS011;42435;53.292;6.000;2024-01-25T09:28:14;46.90;;;8.98;;
56537;SDS011;42435;53.292;6.000;2024-01-25T09:30:41;40.10;;;10.40;;
56537;SDS011;42435;53.292;6.000;2024-01-25T09:33:07;46.10;;;9.88;;
56537;SDS011;42435;53.292;6.000;2024-01-25T09:35:32;50.15;;;12.95;;
56537;SDS011;42435;53.292;6.000;2024-01-25T09:38:02;58.08;;;13.07;;
56537;SDS011;42435;53.292;6.000;2024-01-25T09:40:28;48.92;;;10.95;;
56537;SDS011;42435;53.292;6.000;2024-01-25T09:42:57;39.65;;;8.32;;
56537;SDS011;42435;53.292;6.000;2024-01-25T09:45:23;44.22;;;10.65;;
56537;SDS011;42435;53.292;6.000;2024-01-25T09:47:49;55.72;;;15.02;;
56537;SDS011;42435;53.292;6.000;2024-01-25T09:50:16;34.35;;;8.68;;
56537;SDS011;42435;53.292;6.000;2024-01-25T09:52:44;48.70;;;11.27;;
56537;SDS011;42435;53.292;6.000;2024-01-25T09:55:20;46.05;;;9.23;;
56537;SDS011;42435;53.292;6.000;2024-01-25T09:57:55;61.47;;;10.80;;
56537;SDS011;42435;53.292;6.000;2024-01-25T10:00:22;50.70;;;12.68;;
56537;SDS011;42435;53.292;6.000;2024-01-25T10:02:48;50.40;;;9.88;;
56537;SDS011;42435;53.292;6.000;2024-01-25T10:05:17;41.08;;;9.80;;
56537;SDS011;42435;53.292;6.000;2024-01-25T10:07:44;42.00;;;9.57;;
56537;SDS011;42435;53.292;6.000;2024-01-25T10:10:12;34.60;;;9.10;;
56537;SDS011;42435;53.292;6.000;2024-01-25T10:12:40;37.67;;;8.13;;
56537;SDS011;42435;53.292;6.000;2024-01-25T10:15:13;44.67;;;9.82;;
56537;SDS011;42435;53.292;6.000;2024-01-25T10:17:40;44.78;;;8.52;;
56537;SDS011;42435;53.292;6.000;2024-01-25T10:20:06;37.60;;;8.90;;
56537;SDS011;42435;53.292;6.000;2024-01-25T10:22:38;33.70;;;8.85;;
56537;SDS011;42435;53.292;6.000;2024-01-25T10:25:05;40.50;;;8.90;;
56537;SDS011;42435;53.292;6.000;2024-01-25T10:27:40;42.15;;;8.63;;
56537;SDS011;42435;53.292;6.000;2024-01-25T10:30:07;36.67;;;7.97;;
56537;SDS011;42435;53.292;6.000;2024-01-25T10:32:35;36.03;;;8.77;;
56537;SDS011;42435;53.292;6.000;2024-01-25T10:35:01;43.03;;;8.90;;
56537;SDS011;42435;53.292;6.000;2024-01-25T10:37:27;35.78;;;7.85;;
56537;SDS011;42435;53.292;6.000;2024-01-25T10:39:57;39.40;;;10.07;;
56537;SDS011;42435;53.292;6.000;2024-01-25T10:42:27;39.30;;;8.25;;
56537;SDS011;42435;53.292;6.000;2024-01-25T10:44:55;38.42;;;9.70;;
56537;SDS011;42435;53.292;6.000;2024-01-25T10:47:24;35.20;;;8.23;;
56537;SDS011;42435;53.292;6.000;2024-01-25T10:49:56;33.78;;;8.20;;
56537;SDS011;42435;53.292;6.000;2024-01-25T10:52:23;36.65;;;9.10;;
56537;SDS011;42435;53.292;6.000;2024-01-25T10:54:49;44.55;;;8.40;;
56537;SDS011;42435;53.292;6.000;2024-01-25T10:57:16;34.63;;;9.02;;
56537;SDS011;42435;53.292;6.000;2024-01-25T10:59:42;37.70;;;8.55;;
56537;SDS011;42435;53.292;6.000;2024-01-25T11:02:08;43.63;;;9.45;;
56537;SDS011;42435;53.292;6.000;2024-01-25T11:04:34;37.20;;;7.38;;
56537;SDS011;42435;53.292;6.000;2024-01-25T11:07:08;30.40;;;8.35;;
56537;SDS011;42435;53.292;6.000;2024-01-25T11:09:35;37.22;;;9.55;;
56537;SDS011;42435;53.292;6.000;2024-01-25T11:12:13;35.42;;;7.93;;
56537;SDS011;42435;53.292;6.000;2024-01-25T11:14:42;38.97;;;8.00;;
56537;SDS011;42435;53.292;6.000;2024-01-25T11:17:41;38.85;;;9.02;;
56537;SDS011;42435;53.292;6.000;2024-01-25T11:20:19;31.25;;;7.80;;
56537;SDS011;42435;53.292;6.000;2024-01-25T11:22:48;38.97;;;8.30;;
56537;SDS011;42435;53.292;6.000;2024-01-25T11:25:21;40.80;;;9.38;;
56537;SDS011;42435;53.292;6.000;2024-01-25T11:27:50;38.20;;;8.40;;
56537;SDS011;42435;53.292;6.000;2024-01-25T11:30:18;31.85;;;8.05;;
56537;SDS011;42435;53.292;6.000;2024-01-25T11:32:57;30.08;;;7.90;;
56537;SDS011;42435;53.292;6.000;2024-01-25T11:35:26;40.88;;;8.73;;
56537;SDS011;42435;53.292;6.000;2024-01-25T11:38:14;33.95;;;8.40;;
56537;SDS011;42435;53.292;6.000;2024-01-25T11:40:57;29.67;;;7.28;;
56537;SDS011;42435;53.292;6.000;2024-01-25T11:43:29;29.00;;;7.50;;
56537;SDS011;42435;53.292;6.000;2024-01-25T11:45:58;26.30;;;6.85;;
56537;SDS011;42435;53.292;6.000;2024-01-25T11:48:27;35.75;;;7.78;;
56537;SDS011;42435;53.292;6.000;2024-01-25T11:51:05;28.08;;;7.47;;
56537;SDS011;42435;53.292;6.000;2024-01-25T11:53:37;39.15;;;8.75;;
56537;SDS011;42435;53.292;6.000;2024-01-25T11:56:06;28.23;;;7.10;;
56537;SDS011;42435;53.292;6.000;2024-01-25T11:58:34;34.15;;;8.02;;
56537;SDS011;42435;53.292;6.000;2024-01-25T12:01:03;30.35;;;7.00;;
56537;SDS011;42435;53.292;6.000;2024-01-25T12:03:40;31.30;;;7.22;;
56537;SDS011;42435;53.292;6.000;2024-01-25T12:06:28;29.85;;;7.13;;
56537;SDS011;42435;53.292;6.000;2024-01-25T12:09:09;29.30;;;6.65;;
56537;SDS011;42435;53.292;6.000;2024-01-25T12:11:38;32.70;;;6.93;;
56537;SDS011;42435;53.292;6.000;2024-01-25T12:14:08;31.38;;;7.85;;
56537;SDS011;42435;53.292;6.000;2024-01-25T12:16:49;30.90;;;7.28;;
56537;SDS011;42435;53.292;6.000;2024-01-25T12:19:21;25.48;;;6.80;;
56537;SDS011;42435;53.292;6.000;2024-01-25T12:21:49;27.70;;;6.93;;
56537;SDS011;42435;53.292;6.000;2024-01-25T12:24:22;31.08;;;8.95;;
56537;SDS011;42435;53.292;6.000;2024-01-25T12:26:52;47.42;;;13.30;;
56537;SDS011;42435;53.292;6.000;2024-01-25T12:29:39;35.13;;;10.15;;
56537;SDS011;42435;53.292;6.000;2024-01-25T12:32:09;30.08;;;6.97;;
56537;SDS011;42435;53.292;6.000;2024-01-25T12:34:43;28.23;;;7.47;;
56537;SDS011;42435;53.292;6.000;2024-01-25T12:37:29;38.65;;;7.95;;
56537;SDS011;42435;53.292;6.000;2024-01-25T12:39:56;29.35;;;7.80;;
56537;SDS011;42435;53.292;6.000;2024-01-25T12:42:30;25.83;;;6.40;;
56537;SDS011;42435;53.292;6.000;2024-01-25T12:44:57;28.40;;;6.60;;
56537;SDS011;42435;53.292;6.000;2024-01-25T12:47:23;41.30;;;8.00;;
56537;SDS011;42435;53.292;6.000;2024-01-25T12:49:52;26.13;;;6.35;;
56537;SDS011;42435;53.292;6.000;2024-01-25T12:52:18;30.77;;;6.80;;
56537;SDS011;42435;53.292;6.000;2024-01-25T12:54:49;33.78;;;7.30;;
56537;SDS011;42435;53.292;6.000;2024-01-25T12:57:25;22.85;;;6.38;;
56537;SDS011;42435;53.292;6.000;2024-01-25T12:59:54;31.15;;;6.05;;
56537;SDS011;42435;53.292;6.000;2024-01-25T13:02:43;32.05;;;7.45;;
56537;SDS011;42435;53.292;6.000;2024-01-25T13:05:19;28.70;;;6.30;;
56537;SDS011;42435;53.292;6.000;2024-01-25T13:08:08;24.42;;;6.63;;
56537;SDS011;42435;53.292;6.000;2024-01-25T13:10:34;20.90;;;5.65;;
56537;SDS011;42435;53.292;6.000;2024-01-25T13:13:13;24.95;;;6.35;;
56537;SDS011;42435;53.292;6.000;2024-01-25T13:15:44;29.77;;;5.93;;
56537;SDS011;42435;53.292;6.000;2024-01-25T13:18:35;24.33;;;6.28;;
56537;SDS011;42435;53.292;6.000;2024-01-25T13:21:17;34.47;;;7.85;;
56537;SDS011;42435;53.292;6.000;2024-01-25T13:24:14;36.72;;;8.90;;
56537;SDS011;42435;53.292;6.000;2024-01-25T13:26:52;30.77;;;6.75;;
56537;SDS011;42435;53.292;6.000;2024-01-25T13:30:04;24.85;;;5.93;;
56537;SDS011;42435;53.292;6.000;2024-01-25T13:32:39;33.92;;;8.80;;
56537;SDS011;42435;53.292;6.000;2024-01-25T13:35:09;34.97;;;7.97;;
56537;SDS011;42435;53.292;6.000;2024-01-25T13:37:39;27.80;;;6.85;;
56537;SDS011;42435;53.292;6.000;2024-01-25T13:40:08;25.95;;;7.00;;
56537;SDS011;42435;53.292;6.000;2024-01-25T13:42:34;30.85;;;7.18;;
56537;SDS011;42435;53.292;6.000;2024-01-25T13:45:13;36.20;;;9.05;;
56537;SDS011;42435;53.292;6.000;2024-01-25T13:47:46;29.52;;;6.68;;
56537;SDS011;42435;53.292;6.000;2024-01-25T13:50:27;30.23;;;7.25;;
56537;SDS011;42435;53.292;6.000;2024-01-25T13:53:03;40.00;;;10.20;;
56537;SDS011;42435;53.292;6.000;2024-01-25T13:55:36;28.88;;;8.45;;
56537;SDS011;42435;53.292;6.000;2024-01-25T13:58:05;33.60;;;8.73;;
56537;SDS011;42435;53.292;6.000;2024-01-25T14:00:32;28.40;;;7.80;;
56537;SDS011;42435;53.292;6.000;2024-01-25T14:03:00;26.88;;;8.38;;
56537;SDS011;42435;53.292;6.000;2024-01-25T14:05:32;40.80;;;9.93;;
56537;SDS011;42435;53.292;6.000;2024-01-25T14:08:11;40.70;;;9.82;;
56537;SDS011;42435;53.292;6.000;2024-01-25T14:10:51;41.03;;;10.70;;
56537;SDS011;42435;53.292;6.000;2024-01-25T14:13:29;34.92;;;7.78;;
56537;SDS011;42435;53.292;6.000;2024-01-25T14:16:03;31.33;;;9.20;;
56537;SDS011;42435;53.292;6.000;2024-01-25T14:18:35;36.00;;;8.68;;
56537;SDS011;42435;53.292;6.000;2024-01-25T14:21:06;34.78;;;7.63;;
56537;SDS011;42435;53.292;6.000;2024-01-25T14:23:33;35.70;;;9.05;;
56537;SDS011;42435;53.292;6.000;2024-01-25T14:26:02;36.50;;;10.55;;
56537;SDS011;42435;53.292;6.000;2024-01-25T14:28:34;37.55;;;8.82;;
56537;SDS011;42435;53.292;6.000;2024-01-25T14:31:04;40.78;;;11.07;;
56537;SDS011;42435;53.292;6.000;2024-01-25T14:33:37;32.60;;;10.02;;
56537;SDS011;42435;53.292;6.000;2024-01-25T14:36:21;33.03;;;7.55;;
56537;SDS011;42435;53.292;6.000;2024-01-25T14:38:52;37.40;;;8.70;;
56537;SDS011;42435;53.292;6.000;2024-01-25T14:41:21;28.65;;;8.27;;